Time;durP1;ratioP1;P1;durP2;ratioP2;P2;SDS_P1;SDS_P2;PMS_P1;PMS_P2;Temp;Humidity;BMP_temperature;BMP_pressure;BME280_temperature;BME280_humidity;BME280_pressure;Samples;Min_cycle;Max_cycle;Signal;HPM_P1;HPM_P2
2021/07/20 00:00:59;;;;;;;9.15;5.85;;;15.80;74.50;;;;;;2073441;28;20436;-84
2021/07/20 00:02:04;;;;;;;8.13;5.15;;;15.80;74.50;;;;;;2073407;28;20033;-84
2021/07/20 00:03:07;;;;;;;9.38;5.50;;;15.80;74.60;;;;;;2072942;28;20065;-84
2021/07/20 00:04:08;;;;;;;8.93;5.53;;;15.80;74.50;;;;;;2086882;28;20119;-83
2021/07/20 00:05:11;;;;;;;9.48;5.55;;;15.80;74.50;;;;;;2081490;28;20033;-84
2021/07/20 00:06:14;;;;;;;8.95;5.55;;;15.80;74.50;;;;;;2081658;28;20052;-84
2021/07/20 00:07:15;;;;;;;9.25;5.75;;;15.80;74.50;;;;;;2080768;28;20116;-83
2021/07/20 00:08:16;;;;;;;9.07;5.40;;;15.80;74.50;;;;;;2073579;28;20045;-84
2021/07/20 00:09:17;;;;;;;8.70;5.43;;;15.80;74.50;;;;;;2073257;28;20026;-83
2021/07/20 00:10:26;;;;;;;8.13;5.45;;;15.90;74.50;;;;;;2073392;28;20116;-84
2021/07/20 00:11:26;;;;;;;9.52;5.50;;;15.90;74.60;;;;;;2073683;28;20018;-83
2021/07/20 00:12:27;;;;;;;9.38;5.00;;;15.90;74.50;;;;;;2073072;28;20524;-83
2021/07/20 00:13:28;;;;;;;8.68;5.43;;;15.80;74.50;;;;;;2072932;28;20037;-83
2021/07/20 00:14:29;;;;;;;8.93;5.38;;;15.80;74.60;;;;;;2080914;28;20028;-84
2021/07/20 00:15:30;;;;;;;9.63;5.82;;;15.80;75.20;;;;;;2065145;28;20108;-84
2021/07/20 00:16:31;;;;;;;8.50;5.40;;;15.80;74.60;;;;;;2064958;28;20033;-83
2021/07/20 00:17:31;;;;;;;9.40;5.32;;;15.80;74.70;;;;;;2068331;28;20026;-83
2021/07/20 00:18:34;;;;;;;8.88;5.65;;;15.80;74.80;;;;;;2065127;28;20026;-84
2021/07/20 00:19:35;;;;;;;9.18;5.40;;;15.80;74.80;;;;;;2072260;28;20071;-83
2021/07/20 00:20:37;;;;;;;7.97;5.20;;;15.80;74.90;;;;;;2065173;28;20551;-84
2021/07/20 00:21:37;;;;;;;9.13;5.40;;;15.80;74.90;;;;;;2065084;28;20022;-84
2021/07/20 00:22:38;;;;;;;8.63;5.70;;;15.80;74.90;;;;;;2073572;28;20496;-84
2021/07/20 00:23:39;;;;;;;9.57;5.90;;;15.80;74.90;;;;;;2057071;28;20030;-84
2021/07/20 00:24:39;;;;;;;8.05;5.22;;;15.80;75.00;;;;;;2065089;28;20030;-84
2021/07/20 00:25:40;;;;;;;9.35;5.88;;;15.80;75.00;;;;;;2058904;28;20572;-84
2021/07/20 00:26:41;;;;;;;8.93;5.75;;;15.80;74.90;;;;;;2064087;28;20535;-83
2021/07/20 00:27:43;;;;;;;8.65;5.40;;;15.80;75.00;;;;;;2075467;28;20041;-84
2021/07/20 00:28:43;;;;;;;8.48;5.30;;;15.80;75.10;;;;;;2073091;28;20040;-84
2021/07/20 00:29:44;;;;;;;8.90;5.88;;;15.80;75.10;;;;;;2063610;28;20527;-83
2021/07/20 00:30:46;;;;;;;9.07;6.10;;;15.80;75.10;;;;;;2065092;28;20027;-84
2021/07/20 00:31:47;;;;;;;10.20;5.82;;;15.70;75.20;;;;;;2073244;28;20030;-84
2021/07/20 00:32:47;;;;;;;9.20;6.00;;;15.70;75.20;;;;;;2064618;28;20488;-84
2021/07/20 00:33:48;;;;;;;8.70;5.50;;;15.70;75.30;;;;;;2071585;28;20116;-84
2021/07/20 00:34:49;;;;;;;8.25;5.35;;;15.70;75.30;;;;;;2081417;28;20040;-84
2021/07/20 00:35:49;;;;;;;8.95;5.82;;;15.70;75.40;;;;;;2073177;28;20030;-84
2021/07/20 00:36:50;;;;;;;8.70;5.57;;;15.70;75.40;;;;;;2081246;28;20036;-84
2021/07/20 00:37:51;;;;;;;9.95;6.05;;;15.70;75.50;;;;;;2085003;28;20452;-84
2021/07/20 00:38:52;;;;;;;10.05;6.18;;;15.70;75.50;;;;;;2064510;28;20149;-83
2021/07/20 00:39:52;;;;;;;9.65;5.65;;;15.60;75.50;;;;;;2072675;28;20573;-84
2021/07/20 00:40:53;;;;;;;8.95;5.65;;;15.70;75.60;;;;;;2064702;28;20416;-84
2021/07/20 00:41:54;;;;;;;9.63;5.88;;;15.70;75.60;;;;;;2056834;28;20099;-83
2021/07/20 00:42:55;;;;;;;9.25;5.80;;;15.60;75.60;;;;;;2057053;28;20113;-84
2021/07/20 00:43:56;;;;;;;9.73;6.10;;;15.60;75.60;;;;;;2065120;28;20026;-84
2021/07/20 00:44:56;;;;;;;8.15;5.25;;;15.60;75.70;;;;;;2064944;28;20038;-84
2021/07/20 00:45:57;;;;;;;9.18;5.60;;;15.60;75.80;;;;;;2062195;28;20397;-83
2021/07/20 00:46:58;;;;;;;9.80;5.45;;;15.60;75.80;;;;;;2075584;28;20030;-84
2021/07/20 00:47:59;;;;;;;9.15;6.00;;;15.60;75.80;;;;;;2064818;28;20042;-84
2021/07/20 00:49:00;;;;;;;9.77;6.28;;;15.60;76.00;;;;;;2057086;28;20035;-84
2021/07/20 00:50:01;;;;;;;9.77;6.10;;;15.60;76.50;;;;;;2073283;28;20068;-84
2021/07/20 00:51:01;;;;;;;8.48;5.38;;;15.60;75.90;;;;;;2080114;28;20080;-84
2021/07/20 00:52:02;;;;;;;9.10;6.03;;;15.50;76.00;;;;;;2073114;28;20582;-84
2021/07/20 00:53:05;;;;;;;9.50;5.60;;;15.50;76.00;;;;;;2072889;28;20052;-84
2021/07/20 00:54:06;;;;;;;9.23;6.03;;;15.50;76.60;;;;;;2056869;28;20045;-84
2021/07/20 00:55:08;;;;;;;9.35;5.57;;;15.50;76.10;;;;;;2056281;28;20130;-84
2021/07/20 00:56:09;;;;;;;8.82;5.50;;;15.50;76.10;;;;;;2072860;28;20022;-84
2021/07/20 00:57:10;;;;;;;8.93;5.95;;;15.50;76.20;;;;;;2072868;28;20060;-83
2021/07/20 00:58:11;;;;;;;10.68;6.25;;;15.50;76.80;;;;;;2072640;28;20085;-84
2021/07/20 00:59:13;;;;;;;9.40;5.97;;;15.50;76.30;;;;;;2078668;28;20060;-83
2021/07/20 01:00:18;;;;;;;8.48;5.55;;;15.50;76.40;;;;;;2073151;28;20034;-83
2021/07/20 01:01:18;;;;;;;11.30;6.18;;;15.40;76.30;;;;;;2065215;28;20110;-83
2021/07/20 01:02:20;;;;;;;9.32;5.70;;;15.40;76.30;;;;;;2056215;28;20035;-83
2021/07/20 01:03:21;;;;;;;10.10;6.00;;;15.40;76.40;;;;;;2056855;28;20034;-83
2021/07/20 01:04:22;;;;;;;8.57;5.57;;;15.40;76.40;;;;;;2067991;28;20035;-84
2021/07/20 01:05:24;;;;;;;9.43;6.07;;;15.40;76.50;;;;;;2072274;28;20435;-83
2021/07/20 01:06:25;;;;;;;9.63;5.47;;;15.40;76.50;;;;;;2081103;28;20029;-83
2021/07/20 01:07:28;;;;;;;10.10;5.78;;;15.40;76.50;;;;;;2079499;28;20025;-83
2021/07/20 01:08:31;;;;;;;9.05;5.65;;;15.40;76.60;;;;;;2081063;28;20040;-83
2021/07/20 01:09:32;;;;;;;8.95;5.80;;;15.40;76.60;;;;;;2081364;28;20052;-83
2021/07/20 01:10:34;;;;;;;10.18;5.95;;;15.40;76.70;;;;;;2072599;28;20459;-84
2021/07/20 01:11:36;;;;;;;10.32;6.35;;;15.40;76.70;;;;;;2056890;28;20030;-84
2021/07/20 01:12:38;;;;;;;9.15;5.80;;;15.40;76.70;;;;;;2056707;28;20066;-84
2021/07/20 01:13:40;;;;;;;8.45;5.50;;;15.40;76.60;;;;;;2073604;28;20026;-84
2021/07/20 01:14:44;;;;;;;8.73;5.60;;;15.40;76.70;;;;;;2081414;28;20047;-83
2021/07/20 01:15:45;;;;;;;8.75;5.80;;;15.30;76.70;;;;;;2070317;28;20455;-84
2021/07/20 01:16:46;;;;;;;8.80;5.60;;;15.30;76.80;;;;;;2064798;28;20045;-84
2021/07/20 01:17:47;;;;;;;9.05;5.72;;;15.30;76.90;;;;;;2064698;28;20475;-83
2021/07/20 01:18:49;;;;;;;9.45;6.05;;;15.30;77.00;;;;;;2067360;28;20064;-84
2021/07/20 01:19:52;;;;;;;10.02;6.20;;;15.20;77.00;;;;;;2060710;28;20049;-84
2021/07/20 01:20:54;;;;;;;10.68;6.22;;;15.20;77.10;;;;;;2057229;28;20409;-84
2021/07/20 01:21:57;;;;;;;9.95;6.13;;;15.20;77.10;;;;;;2072919;28;20040;-84
2021/07/20 01:23:16;;;;;;;10.50;6.10;;;15.20;77.20;;;;;;2085510;28;20021;-83
2021/07/20 01:24:18;;;;;;;9.93;6.00;;;15.20;77.20;;;;;;2077013;28;20026;-83
2021/07/20 01:25:20;;;;;;;10.73;6.30;;;15.20;77.20;;;;;;2056444;28;20082;-83
2021/07/20 01:26:20;;;;;;;9.95;6.35;;;15.20;77.20;;;;;;2056820;28;20058;-83
2021/07/20 01:27:21;;;;;;;9.95;6.18;;;15.20;77.20;;;;;;2057434;28;20035;-83
2021/07/20 01:28:24;;;;;;;9.75;6.07;;;15.20;77.30;;;;;;2064322;28;20039;-84
2021/07/20 01:29:26;;;;;;;11.00;6.30;;;15.20;77.30;;;;;;2072284;28;20034;-84
2021/07/20 01:30:29;;;;;;;10.45;6.43;;;15.20;77.30;;;;;;2072384;28;20033;-84
2021/07/20 01:31:33;;;;;;;10.43;6.38;;;15.20;77.30;;;;;;2073113;28;20022;-84
2021/07/20 01:32:35;;;;;;;9.52;6.05;;;15.20;77.40;;;;;;2073195;28;20068;-84
2021/07/20 01:33:41;;;;;;;9.82;6.28;;;15.10;77.40;;;;;;2072822;28;20034;-83
2021/07/20 01:34:44;;;;;;;10.27;5.88;;;15.10;77.50;;;;;;2073460;28;20030;-84
2021/07/20 01:35:47;;;;;;;10.82;6.30;;;15.10;77.60;;;;;;2072296;28;20033;-83
2021/07/20 01:36:50;;;;;;;10.15;6.15;;;15.10;77.60;;;;;;2072590;28;20018;-84
2021/07/20 01:37:51;;;;;;;11.15;7.07;;;15.10;77.70;;;;;;2068980;28;20454;-84
2021/07/20 01:38:55;;;;;;;11.38;6.50;;;15.10;77.80;;;;;;2080111;28;20078;-84
2021/07/20 01:39:57;;;;;;;10.55;6.38;;;15.10;77.80;;;;;;2089201;28;20408;-84
2021/07/20 01:41:01;;;;;;;9.77;6.03;;;15.10;77.80;;;;;;2089104;28;20436;-84
2021/07/20 01:42:03;;;;;;;9.63;6.35;;;15.10;77.80;;;;;;2088809;28;20465;-84
2021/07/20 01:43:05;;;;;;;10.80;6.22;;;15.10;77.80;;;;;;2080917;28;20079;-84
2021/07/20 01:44:11;;;;;;;10.32;6.38;;;15.10;78.40;;;;;;2080193;28;20037;-84
2021/07/20 01:45:13;;;;;;;10.88;6.20;;;15.10;77.80;;;;;;2073179;28;20084;-84
2021/07/20 01:46:14;;;;;;;10.50;6.45;;;15.10;77.80;;;;;;2071695;28;20415;-83
2021/07/20 01:47:17;;;;;;;10.68;6.43;;;15.10;77.90;;;;;;2072763;28;20037;-84
2021/07/20 01:48:19;;;;;;;11.40;6.30;;;15.10;77.90;;;;;;2074028;28;20034;-83
2021/07/20 01:49:20;;;;;;;11.57;6.97;;;15.10;77.90;;;;;;2072745;28;20393;-84
2021/07/20 01:50:21;;;;;;;9.35;6.10;;;15.10;78.00;;;;;;2064764;28;20066;-84
2021/07/20 01:51:23;;;;;;;10.13;6.60;;;15.10;78.00;;;;;;2066431;28;20038;-84
2021/07/20 01:52:25;;;;;;;10.35;6.43;;;15.10;78.00;;;;;;2080801;28;20076;-84
2021/07/20 01:53:28;;;;;;;10.90;6.70;;;15.10;78.00;;;;;;2072460;28;20141;-83
2021/07/20 01:54:29;;;;;;;13.52;7.22;;;15.10;78.00;;;;;;2056670;28;20043;-84
2021/07/20 01:55:30;;;;;;;12.30;6.45;;;15.00;78.00;;;;;;2056558;28;20481;-84
2021/07/20 01:56:31;;;;;;;11.02;6.72;;;15.00;78.10;;;;;;2056736;28;20080;-83
2021/07/20 01:57:33;;;;;;;11.55;6.53;;;15.00;78.10;;;;;;2064490;28;20113;-83
2021/07/20 01:58:38;;;;;;;11.32;6.80;;;15.00;78.20;;;;;;2065439;28;20038;-83
2021/07/20 01:59:42;;;;;;;9.85;6.30;;;15.00;78.20;;;;;;2071342;28;20026;-83
2021/07/20 02:00:43;;;;;;;10.27;6.40;;;15.00;78.20;;;;;;2076910;28;20503;-83
2021/07/20 02:02:01;;;;;;;9.75;6.13;;;15.00;78.30;;;;;;2073045;28;20033;-83
2021/07/20 02:04:24;;;;;;;11.10;6.22;;;15.00;78.20;;;;;;2082032;28;20029;-84
2021/07/20 02:09:28;;;;;;;11.40;6.10;;;15.00;78.10;;;;;;2089785;28;20048;-84
2021/07/20 02:10:29;;;;;;;9.98;6.35;;;15.00;78.20;;;;;;2089451;28;20071;-84
2021/07/20 02:11:35;;;;;;;10.45;6.32;;;15.00;78.20;;;;;;2082039;28;20044;-84
2021/07/20 02:12:40;;;;;;;11.00;6.30;;;15.00;78.20;;;;;;2081684;28;20041;-84
2021/07/20 02:13:46;;;;;;;10.02;6.32;;;15.00;78.20;;;;;;2081155;28;20041;-83
2021/07/20 02:14:48;;;;;;;10.85;6.55;;;15.00;78.20;;;;;;2089122;28;20029;-83
2021/07/20 02:15:50;;;;;;;9.40;6.18;;;15.00;78.20;;;;;;2089717;28;20064;-84
2021/07/20 02:16:52;;;;;;;10.50;6.38;;;15.10;78.20;;;;;;2075165;28;20112;-83
2021/07/20 02:17:54;;;;;;;10.82;6.53;;;15.10;78.10;;;;;;2072714;28;20112;-83
2021/07/20 02:19:02;;;;;;;11.20;6.78;;;15.10;78.10;;;;;;2063804;28;20022;-83
2021/07/20 02:20:09;;;;;;;9.68;5.93;;;15.10;78.10;;;;;;2067838;28;20027;-84
2021/07/20 02:21:11;;;;;;;9.57;6.20;;;15.10;78.00;;;;;;2085445;28;20036;-84
2021/07/20 02:22:18;;;;;;;9.93;6.07;;;15.10;78.00;;;;;;2056621;28;20022;-83
2021/07/20 02:23:19;;;;;;;8.45;5.55;;;15.10;78.00;;;;;;2058430;28;20564;-83
2021/07/20 02:24:29;;;;;;;10.45;6.10;;;15.10;78.00;;;;;;2072837;28;20030;-83
2021/07/20 02:25:30;;;;;;;10.80;6.20;;;15.10;78.00;;;;;;2075079;28;20508;-83
2021/07/20 02:26:31;;;;;;;9.48;6.00;;;15.10;78.00;;;;;;2064569;28;20023;-84
2021/07/20 02:27:33;;;;;;;9.23;6.03;;;15.10;78.00;;;;;;2065406;28;20070;-83
2021/07/20 02:28:36;;;;;;;10.38;6.50;;;15.10;78.00;;;;;;2071672;28;20033;-83
2021/07/20 02:29:38;;;;;;;10.10;6.13;;;15.10;77.90;;;;;;2057143;28;20031;-83
2021/07/20 02:30:40;;;;;;;10.45;6.53;;;15.10;78.00;;;;;;2065056;28;20027;-83
2021/07/20 02:31:42;;;;;;;9.07;5.72;;;15.10;77.90;;;;;;2056186;28;20018;-83
2021/07/20 02:32:45;;;;;;;11.15;6.93;;;15.10;78.00;;;;;;2064747;28;20082;-83
2021/07/20 02:33:47;;;;;;;12.07;6.50;;;15.10;77.90;;;;;;2072781;28;20034;-84
2021/07/20 02:34:50;;;;;;;10.73;6.40;;;15.10;77.90;;;;;;2080795;28;20064;-83
2021/07/20 02:35:51;;;;;;;10.98;6.72;;;15.10;78.00;;;;;;2064520;28;20125;-84
2021/07/20 02:36:53;;;;;;;10.57;6.40;;;15.10;78.00;;;;;;2055891;28;20031;-84
2021/07/20 02:37:56;;;;;;;10.65;6.57;;;15.10;78.60;;;;;;2060564;28;20030;-83
2021/07/20 02:38:57;;;;;;;13.02;7.18;;;15.10;78.00;;;;;;2065455;28;20037;-84
2021/07/20 02:40:00;;;;;;;11.00;6.82;;;15.10;78.00;;;;;;2066030;28;20417;-84
2021/07/20 02:41:02;;;;;;;10.98;6.57;;;15.10;78.00;;;;;;2073998;28;20125;-84
2021/07/20 02:42:05;;;;;;;10.23;6.57;;;15.10;78.00;;;;;;2074084;28;20172;-84
2021/07/20 02:43:06;;;;;;;10.65;6.53;;;15.10;78.00;;;;;;2066159;28;20026;-84
2021/07/20 02:44:07;;;;;;;11.27;6.50;;;15.10;78.00;;;;;;2058270;28;20121;-84
2021/07/20 02:45:09;;;;;;;10.73;6.85;;;15.10;78.00;;;;;;2066382;28;20033;-83
2021/07/20 02:46:11;;;;;;;11.88;7.15;;;15.00;78.00;;;;;;2073901;28;20522;-84
2021/07/20 02:47:12;;;;;;;10.90;6.78;;;15.00;78.00;;;;;;2084430;28;20423;-83
2021/07/20 02:48:15;;;;;;;10.32;6.68;;;15.00;78.00;;;;;;2073804;28;20037;-84
2021/07/20 02:49:16;;;;;;;9.90;6.32;;;15.00;78.00;;;;;;2074424;28;20026;-84
2021/07/20 02:50:17;;;;;;;10.77;6.60;;;15.00;78.60;;;;;;2065824;28;20046;-83
2021/07/20 02:51:19;;;;;;;9.82;6.32;;;15.00;78.00;;;;;;2057502;28;20078;-84
2021/07/20 02:52:21;;;;;;;9.10;6.10;;;15.00;78.00;;;;;;2065419;28;20464;-84
2021/07/20 02:53:22;;;;;;;10.88;6.55;;;15.00;78.00;;;;;;2074067;28;20034;-84
2021/07/20 02:54:25;;;;;;;12.02;6.85;;;15.00;78.10;;;;;;2073563;28;20141;-84
2021/07/20 02:55:27;;;;;;;11.10;6.88;;;15.00;78.10;;;;;;2074369;28;20049;-84
2021/07/20 02:56:29;;;;;;;11.60;7.05;;;15.00;78.10;;;;;;2074168;28;20056;-83
2021/07/20 02:57:32;;;;;;;11.02;6.38;;;15.00;78.20;;;;;;2058016;28;20098;-83
2021/07/20 02:58:34;;;;;;;10.95;6.47;;;15.00;78.20;;;;;;2063569;28;20058;-83
2021/07/20 02:59:37;;;;;;;10.52;6.45;;;15.00;78.20;;;;;;2082315;28;20053;-84
2021/07/20 03:00:39;;;;;;;10.90;6.40;;;14.90;78.20;;;;;;2078431;28;20053;-84
2021/07/20 03:01:41;;;;;;;11.15;7.38;;;14.90;78.20;;;;;;2082859;28;20033;-84
2021/07/20 03:02:45;;;;;;;10.55;6.30;;;14.90;78.30;;;;;;2082915;28;20108;-84
2021/07/20 03:03:46;;;;;;;10.15;6.40;;;14.90;78.30;;;;;;2066275;28;20033;-84
2021/07/20 03:04:47;;;;;;;11.45;7.20;;;14.90;78.30;;;;;;2057749;28;20039;-84
2021/07/20 03:05:48;;;;;;;11.45;6.90;;;14.90;78.40;;;;;;2065834;28;20091;-84
2021/07/20 03:06:56;;;;;;;13.77;7.22;;;14.90;78.40;;;;;;2059923;28;20037;-83
2021/07/20 03:07:59;;;;;;;10.88;7.05;;;14.90;78.40;;;;;;2059473;28;20093;-84
2021/07/20 03:09:01;;;;;;;10.40;6.50;;;14.80;78.50;;;;;;2074148;28;20117;-83
2021/07/20 03:10:03;;;;;;;10.55;6.35;;;14.80;78.50;;;;;;2065438;28;20503;-84
2021/07/20 03:11:07;;;;;;;11.68;6.43;;;14.80;78.60;;;;;;2068966;28;20026;-83
2021/07/20 03:12:13;;;;;;;11.27;6.57;;;14.80;78.60;;;;;;2082406;28;20029;-83
2021/07/20 03:13:15;;;;;;;12.63;7.05;;;14.80;78.60;;;;;;2090368;28;20024;-84
2021/07/20 03:14:22;;;;;;;10.30;6.65;;;14.80;78.70;;;;;;2090210;28;20025;-84
2021/07/20 03:15:24;;;;;;;11.00;6.75;;;14.80;78.70;;;;;;2076144;28;20026;-83
2021/07/20 03:16:26;;;;;;;10.20;6.68;;;14.70;78.70;;;;;;2064689;28;20035;-83
2021/07/20 03:17:29;;;;;;;11.18;6.40;;;14.70;78.80;;;;;;2072298;28;20085;-83
2021/07/20 03:18:31;;;;;;;11.05;6.43;;;14.70;78.90;;;;;;2075433;28;20413;-84
2021/07/20 03:19:34;;;;;;;11.57;7.25;;;14.70;78.90;;;;;;2073801;28;20131;-84
2021/07/20 03:20:38;;;;;;;10.68;6.78;;;14.70;79.10;;;;;;2066545;28;20022;-84
2021/07/20 03:21:40;;;;;;;11.70;7.25;;;14.60;79.00;;;;;;2069899;28;20072;-83
2021/07/20 03:22:42;;;;;;;11.18;6.90;;;14.60;79.10;;;;;;2081937;28;20108;-83
2021/07/20 03:23:44;;;;;;;11.38;6.93;;;14.70;79.20;;;;;;2081977;28;20025;-84
2021/07/20 03:24:47;;;;;;;10.95;7.35;;;14.60;79.00;;;;;;2073402;28;20034;-83
2021/07/20 03:25:49;;;;;;;11.45;6.75;;;14.60;79.10;;;;;;2068036;28;20022;-83
2021/07/20 03:26:53;;;;;;;11.65;7.03;;;14.60;79.10;;;;;;2066010;28;20062;-84
2021/07/20 03:27:55;;;;;;;11.73;7.20;;;14.60;79.10;;;;;;2057653;28;20126;-83
2021/07/20 03:28:58;;;;;;;10.30;6.45;;;14.60;79.10;;;;;;2058109;28;20089;-83
2021/07/20 03:30:01;;;;;;;12.57;7.10;;;14.60;79.10;;;;;;2065878;28;20027;-83
2021/07/20 03:31:02;;;;;;;10.60;6.65;;;14.60;79.10;;;;;;2073735;28;20029;-84
2021/07/20 03:32:03;;;;;;;11.02;6.65;;;14.60;79.10;;;;;;2073836;28;20022;-84
2021/07/20 03:33:06;;;;;;;11.93;7.05;;;14.60;79.10;;;;;;2065542;28;20059;-83
2021/07/20 03:34:07;;;;;;;12.13;6.80;;;14.60;79.10;;;;;;2074164;28;20395;-84
2021/07/20 03:35:09;;;;;;;10.38;6.47;;;14.60;79.10;;;;;;2065561;28;20083;-84
2021/07/20 03:36:10;;;;;;;11.68;6.45;;;14.60;79.10;;;;;;2064603;28;20097;-84
2021/07/20 03:37:12;;;;;;;9.23;5.85;;;14.60;79.00;;;;;;2081318;28;20060;-83
2021/07/20 03:38:13;;;;;;;10.35;6.40;;;14.60;79.00;;;;;;2074561;28;20441;-83
2021/07/20 03:39:14;;;;;;;10.18;6.35;;;14.60;79.10;;;;;;2065510;28;20113;-83
2021/07/20 03:40:15;;;;;;;12.82;6.93;;;14.60;79.10;;;;;;2079112;28;20485;-84
2021/07/20 03:41:16;;;;;;;10.95;7.05;;;14.60;79.10;;;;;;2076005;28;20404;-83
2021/07/20 03:42:17;;;;;;;10.60;6.47;;;14.60;79.00;;;;;;2073227;28;20404;-83
2021/07/20 03:43:23;;;;;;;11.63;6.60;;;14.60;79.10;;;;;;2065232;28;20117;-83
2021/07/20 03:44:25;;;;;;;10.60;6.60;;;14.50;79.10;;;;;;2074815;28;20091;-84
2021/07/20 03:45:26;;;;;;;11.40;7.00;;;14.50;79.10;;;;;;2090160;28;20021;-84
2021/07/20 03:46:27;;;;;;;11.05;6.80;;;14.50;79.10;;;;;;2078131;28;20026;-84
2021/07/20 03:47:28;;;;;;;11.10;6.90;;;14.50;79.10;;;;;;2073280;28;20076;-84
2021/07/20 03:48:32;;;;;;;10.68;6.72;;;14.50;79.10;;;;;;2065237;28;20074;-84
2021/07/20 03:49:33;;;;;;;10.55;6.65;;;14.50;79.10;;;;;;2073627;28;20022;-83
2021/07/20 03:50:35;;;;;;;10.55;6.53;;;14.50;79.10;;;;;;2077335;28;20024;-84
2021/07/20 03:51:36;;;;;;;11.70;7.07;;;14.50;79.10;;;;;;2079837;28;20021;-84
2021/07/20 03:52:38;;;;;;;10.68;7.10;;;14.50;79.10;;;;;;2072427;28;20064;-84
2021/07/20 03:53:40;;;;;;;11.10;6.50;;;14.50;79.10;;;;;;2075023;28;20040;-84
2021/07/20 03:54:42;;;;;;;10.02;6.47;;;14.50;79.10;;;;;;2065255;28;20062;-84
2021/07/20 03:55:47;;;;;;;11.65;6.95;;;14.50;79.20;;;;;;2067150;28;20500;-83
2021/07/20 03:56:50;;;;;;;10.35;6.40;;;14.50;79.20;;;;;;2074094;28;20026;-83
2021/07/20 03:57:51;;;;;;;9.82;6.30;;;14.40;79.20;;;;;;2081924;28;20060;-83
2021/07/20 03:58:55;;;;;;;10.25;6.47;;;14.40;79.20;;;;;;2090122;28;20017;-83
2021/07/20 04:00:00;;;;;;;11.18;6.97;;;14.40;79.30;;;;;;2081643;28;20018;-83
2021/07/20 04:01:02;;;;;;;10.52;6.30;;;14.40;79.30;;;;;;2081505;28;20021;-83
2021/07/20 04:02:04;;;;;;;10.30;6.50;;;14.40;79.30;;;;;;2071824;28;20026;-83
2021/07/20 04:03:24;;;;;;;10.05;6.10;;;14.40;79.40;;;;;;2081883;28;20087;-83
2021/07/20 04:04:29;;;;;;;9.32;6.28;;;14.40;79.40;;;;;;2081466;28;20476;-83
2021/07/20 04:05:31;;;;;;;10.75;5.95;;;14.40;79.30;;;;;;2081623;28;20032;-83
2021/07/20 04:06:34;;;;;;;10.55;6.28;;;14.40;79.30;;;;;;2073225;28;20022;-83
2021/07/20 04:07:37;;;;;;;9.88;6.20;;;14.40;79.30;;;;;;2065146;28;20425;-83
2021/07/20 04:08:38;;;;;;;9.57;6.30;;;14.40;79.30;;;;;;2065553;28;20030;-83
2021/07/20 04:09:40;;;;;;;10.93;6.32;;;14.40;79.30;;;;;;2076086;28;20025;-82
2021/07/20 04:10:41;;;;;;;9.73;5.90;;;14.40;79.30;;;;;;2065379;28;20042;-83
2021/07/20 04:11:43;;;;;;;9.05;5.72;;;14.40;79.30;;;;;;2064846;28;20037;-83
2021/07/20 04:12:44;;;;;;;10.18;5.55;;;14.30;79.30;;;;;;2065172;28;20126;-83
2021/07/20 04:13:45;;;;;;;9.80;5.90;;;14.40;79.40;;;;;;2065503;28;20500;-83
2021/07/20 04:14:48;;;;;;;9.13;5.57;;;14.40;80.00;;;;;;2065467;28;20023;-83
2021/07/20 04:16:01;;;;;;;10.43;6.18;;;14.40;79.40;;;;;;2076188;28;20034;-83
2021/07/20 04:17:02;;;;;;;9.95;6.07;;;14.40;79.40;;;;;;2082098;28;20432;-83
2021/07/20 04:18:03;;;;;;;8.68;6.07;;;14.40;79.30;;;;;;2073108;28;20029;-84
2021/07/20 04:19:04;;;;;;;10.07;6.40;;;14.40;79.30;;;;;;2065294;28;20526;-83
2021/07/20 04:20:06;;;;;;;11.38;6.18;;;14.40;79.30;;;;;;2073320;28;20054;-83
2021/07/20 04:21:07;;;;;;;10.60;5.88;;;14.40;79.30;;;;;;2085929;28;20110;-83
2021/07/20 04:22:09;;;;;;;9.95;6.15;;;14.40;79.30;;;;;;2076359;28;20088;-83
2021/07/20 04:23:11;;;;;;;9.95;6.57;;;14.50;79.20;;;;;;2072973;28;20026;-83
2021/07/20 04:24:13;;;;;;;10.05;6.22;;;14.50;79.20;;;;;;2073438;28;20121;-83
2021/07/20 04:25:14;;;;;;;10.23;6.35;;;14.50;79.10;;;;;;2073349;28;20073;-83
2021/07/20 04:26:15;;;;;;;11.40;6.50;;;14.40;79.60;;;;;;2065104;28;20412;-83
2021/07/20 04:27:17;;;;;;;10.73;6.43;;;14.50;79.00;;;;;;2066191;28;20062;-83
2021/07/20 04:28:19;;;;;;;9.68;6.00;;;14.50;79.00;;;;;;2072690;28;20123;-83
2021/07/20 04:29:22;;;;;;;10.52;5.95;;;14.50;79.00;;;;;;2065333;28;20034;-83
2021/07/20 04:30:22;;;;;;;9.18;5.65;;;14.50;79.00;;;;;;2058869;28;20722;-83
2021/07/20 04:31:25;;;;;;;9.98;5.93;;;14.50;78.90;;;;;;2065052;28;20014;-83
2021/07/20 04:32:26;;;;;;;9.45;6.00;;;14.60;78.90;;;;;;2080022;28;20036;-82
2021/07/20 04:33:31;;;;;;;10.32;6.65;;;14.50;78.80;;;;;;2072397;28;20034;-82
2021/07/20 04:34:36;;;;;;;9.63;6.32;;;14.60;78.80;;;;;;2072563;28;20032;-83
2021/07/20 04:35:38;;;;;;;9.55;6.10;;;14.60;78.80;;;;;;2080440;28;20021;-83
2021/07/20 04:36:40;;;;;;;8.95;5.85;;;14.60;78.70;;;;;;2071236;28;20030;-83
2021/07/20 04:37:41;;;;;;;8.73;5.25;;;14.60;78.70;;;;;;2073527;28;20030;-83
2021/07/20 04:38:43;;;;;;;9.18;5.70;;;14.60;78.60;;;;;;2065149;28;20043;-83
2021/07/20 04:39:43;;;;;;;10.13;6.30;;;14.60;78.60;;;;;;2065288;28;20052;-82
2021/07/20 04:40:46;;;;;;;10.60;5.93;;;14.60;78.60;;;;;;2066823;28;20517;-83
2021/07/20 04:41:48;;;;;;;10.43;6.03;;;14.60;78.60;;;;;;2056935;28;20038;-83
2021/07/20 04:42:49;;;;;;;10.32;6.05;;;14.60;78.60;;;;;;2065203;28;20121;-84
2021/07/20 04:43:50;;;;;;;10.10;5.60;;;14.60;78.70;;;;;;2081014;28;20032;-83
2021/07/20 04:44:51;;;;;;;9.13;5.45;;;14.60;78.60;;;;;;2064823;28;20042;-83
2021/07/20 04:45:56;;;;;;;9.80;5.78;;;14.70;78.70;;;;;;2068451;28;20444;-82
2021/07/20 04:46:57;;;;;;;9.23;5.70;;;14.60;78.60;;;;;;2081898;28;20032;-83
2021/07/20 04:47:58;;;;;;;10.13;6.32;;;14.60;78.60;;;;;;2080668;28;20034;-83
2021/07/20 04:48:58;;;;;;;10.13;5.88;;;14.60;78.60;;;;;;2073188;28;20030;-83
2021/07/20 04:49:59;;;;;;;10.07;5.80;;;14.60;78.50;;;;;;2048897;29;20030;-83
2021/07/20 04:51:01;;;;;;;8.60;5.85;;;14.70;79.20;;;;;;2063166;28;20034;-83
2021/07/20 04:52:02;;;;;;;8.68;5.55;;;14.70;78.60;;;;;;2064376;28;20018;-83
2021/07/20 04:53:04;;;;;;;9.10;5.50;;;14.70;78.50;;;;;;2065074;28;20419;-83
2021/07/20 04:54:07;;;;;;;9.45;6.00;;;14.70;78.50;;;;;;2073070;28;20069;-83
2021/07/20 04:55:09;;;;;;;9.63;5.53;;;14.70;78.40;;;;;;2064779;28;20054;-83
2021/07/20 04:56:10;;;;;;;8.85;5.50;;;14.70;78.40;;;;;;2065011;28;20421;-83
2021/07/20 04:57:11;;;;;;;8.50;5.45;;;14.80;78.30;;;;;;2064956;28;20142;-83
2021/07/20 04:58:13;;;;;;;9.55;5.38;;;14.80;78.20;;;;;;2064893;28;20440;-84
2021/07/20 04:59:14;;;;;;;9.80;5.60;;;14.80;78.20;;;;;;2057176;28;20477;-83
2021/07/20 05:00:15;;;;;;;8.35;5.30;;;14.80;78.20;;;;;;2064203;28;20029;-83
2021/07/20 05:01:16;;;;;;;8.90;5.22;;;14.80;78.10;;;;;;2072934;28;20044;-83
2021/07/20 05:02:17;;;;;;;8.45;5.47;;;14.80;78.00;;;;;;2064726;28;20037;-83
2021/07/20 05:03:21;;;;;;;8.80;5.60;;;14.90;78.60;;;;;;2072739;28;20058;-83
2021/07/20 05:04:22;;;;;;;10.38;6.05;;;14.90;78.60;;;;;;2080925;28;20104;-83
2021/07/20 05:05:24;;;;;;;10.05;5.97;;;14.90;77.80;;;;;;2064425;28;20129;-83
2021/07/20 05:06:27;;;;;;;9.35;5.25;;;14.90;77.80;;;;;;2056688;28;20027;-83
2021/07/20 05:07:30;;;;;;;8.27;5.03;;;14.90;77.70;;;;;;2065227;28;20030;-83
2021/07/20 05:08:34;;;;;;;8.23;4.82;;;15.00;78.30;;;;;;2072774;28;20038;-83
2021/07/20 05:09:35;;;;;;;9.18;5.22;;;15.00;77.60;;;;;;2065854;28;20065;-83
2021/07/20 05:10:37;;;;;;;8.23;5.07;;;15.00;77.60;;;;;;2063079;28;20049;-83
2021/07/20 05:11:39;;;;;;;8.45;5.30;;;15.10;77.60;;;;;;2056774;28;20030;-83
2021/07/20 05:12:41;;;;;;;8.35;5.30;;;15.10;77.40;;;;;;2056921;28;20081;-83
2021/07/20 05:13:45;;;;;;;8.48;5.13;;;15.10;77.30;;;;;;2065263;28;20172;-84
2021/07/20 05:14:45;;;;;;;8.18;5.07;;;15.10;77.20;;;;;;2074344;28;20018;-83
2021/07/20 05:15:54;;;;;;;7.53;5.05;;;15.20;77.20;;;;;;2081024;28;20545;-83
2021/07/20 05:16:54;;;;;;;8.70;5.20;;;15.30;77.00;;;;;;2080906;28;20041;-84
2021/07/20 05:17:56;;;;;;;8.13;5.00;;;15.30;76.90;;;;;;2064511;28;20030;-83
2021/07/20 05:18:57;;;;;;;9.30;5.75;;;15.40;76.70;;;;;;2072787;28;20057;-83
2021/07/20 05:19:58;;;;;;;8.55;5.38;;;15.50;76.60;;;;;;2078471;28;20029;-83
2021/07/20 05:20:59;;;;;;;8.60;5.32;;;15.50;76.40;;;;;;2059963;28;20089;-84
2021/07/20 05:22:01;;;;;;;8.38;5.30;;;15.60;76.30;;;;;;2072745;28;20077;-84
2021/07/20 05:23:02;;;;;;;8.43;5.22;;;15.70;76.10;;;;;;2064839;28;20042;-84
2021/07/20 05:24:03;;;;;;;8.88;5.30;;;15.70;75.90;;;;;;2064491;28;20558;-84
2021/07/20 05:25:06;;;;;;;7.45;4.97;;;15.80;75.80;;;;;;2064843;28;20400;-84
2021/07/20 05:26:07;;;;;;;8.07;5.10;;;15.90;75.60;;;;;;2056969;28;20409;-83
2021/07/20 05:27:09;;;;;;;7.55;4.70;;;16.00;75.40;;;;;;2057098;28;20516;-83